Time;durP1;ratioP1;P1;durP2;ratioP2;P2;SDS_P1;SDS_P2;PMS_P1;PMS_P2;Temp;Humidity;BMP_temperature;BMP_pressure;BME280_temperature;BME280_humidity;BME280_pressure;Samples;Min_cycle;Max_cycle;Signal;HPM_P1;HPM_P2
2023/07/05 00:00:44;;;;;;;3.03;1.83;;;20.60;99.90;;;;;;5014852;28;20186;-64
2023/07/05 00:03:10;;;;;;;3.63;1.80;;;20.60;99.90;;;;;;5017632;28;20200;-67
2023/07/05 00:05:37;;;;;;;2.33;1.45;;;20.60;99.90;;;;;;5014977;28;20209;-66
2023/07/05 00:08:03;;;;;;;2.33;1.67;;;20.60;99.90;;;;;;5006775;28;20206;-66
2023/07/05 00:10:29;;;;;;;2.85;1.63;;;20.60;99.90;;;;;;5017263;28;20188;-65
2023/07/05 00:12:59;;;;;;;2.92;1.80;;;20.60;99.90;;;;;;5014479;28;20174;-65
2023/07/05 00:15:25;;;;;;;3.30;1.85;;;20.60;99.90;;;;;;5016124;28;20170;-64
2023/07/05 00:17:53;;;;;;;3.08;1.70;;;20.60;99.90;;;;;;5008875;28;20292;-66
2023/07/05 00:20:19;;;;;;;1.98;1.50;;;20.60;99.90;;;;;;5015702;28;20707;-65
2023/07/05 00:22:45;;;;;;;2.13;1.60;;;20.60;99.90;;;;;;5016113;28;20272;-66
2023/07/05 00:25:14;;;;;;;2.00;1.70;;;20.60;99.90;;;;;;5010222;28;20206;-66
2023/07/05 00:27:39;;;;;;;5.28;1.90;;;20.60;99.90;;;;;;5006871;28;20245;-67
2023/07/05 00:30:08;;;;;;;3.00;1.48;;;20.60;99.90;;;;;;5013303;28;20187;-65
2023/07/05 00:32:33;;;;;;;3.63;1.50;;;20.60;99.90;;;;;;5031187;28;20197;-66
2023/07/05 00:35:02;;;;;;;1.48;1.33;;;20.60;99.90;;;;;;5016631;28;20465;-65
2023/07/05 00:37:27;;;;;;;3.25;1.85;;;20.60;99.90;;;;;;5017770;28;20182;-66
2023/07/05 00:39:55;;;;;;;1.77;1.50;;;20.60;99.90;;;;;;5016463;28;20259;-67
2023/07/05 00:42:21;;;;;;;2.80;1.55;;;20.50;99.90;;;;;;5001680;28;20189;-66
2023/07/05 00:45:19;;;;;;;2.58;1.50;;;20.50;99.90;;;;;;5017951;28;20173;-67
2023/07/05 00:47:48;;;;;;;1.90;1.60;;;20.50;99.90;;;;;;4971507;28;20312;-64
2023/07/05 00:50:25;;;;;;;2.00;1.40;;;20.50;99.90;;;;;;5030624;28;20198;-66
2023/07/05 00:52:53;;;;;;;1.33;1.20;;;20.50;99.90;;;;;;5031980;28;20181;-66
2023/07/05 00:55:21;;;;;;;2.65;2.00;;;20.50;99.90;;;;;;5015000;28;20197;-66
2023/07/05 00:57:50;;;;;;;2.55;1.60;;;20.40;99.90;;;;;;5014390;28;20324;-67
2023/07/05 01:00:18;;;;;;;2.55;1.65;;;20.40;99.90;;;;;;5015639;28;20189;-66
2023/07/05 01:02:52;;;;;;;2.67;1.70;;;20.40;99.90;;;;;;5017031;28;20182;-67
2023/07/05 01:05:20;;;;;;;2.10;1.40;;;20.40;99.90;;;;;;5016371;28;20286;-66
2023/07/05 01:07:48;;;;;;;3.30;1.55;;;20.40;99.90;;;;;;5035020;28;20501;-66
2023/07/05 01:10:24;;;;;;;3.90;1.58;;;20.40;99.90;;;;;;5017709;28;20170;-66
2023/07/05 01:12:59;;;;;;;2.10;1.30;;;20.40;99.90;;;;;;5010535;28;20177;-65
2023/07/05 01:15:51;;;;;;;1.80;1.30;;;20.40;99.90;;;;;;5017506;28;20205;-66
2023/07/05 01:18:34;;;;;;;2.20;1.40;;;20.40;99.90;;;;;;5017177;28;20174;-66
2023/07/05 01:21:16;;;;;;;2.38;1.58;;;20.40;99.90;;;;;;5033931;28;20260;-65
2023/07/05 01:24:26;;;;;;;1.65;1.15;;;20.40;99.90;;;;;;5028915;28;20197;-66
2023/07/05 01:27:03;;;;;;;2.05;1.42;;;20.40;99.90;;;;;;4979164;28;20217;-67
2023/07/05 01:29:48;;;;;;;2.10;1.45;;;20.40;99.90;;;;;;5037530;28;20525;-66
2023/07/05 01:32:27;;;;;;;2.25;1.50;;;20.50;99.90;;;;;;5019181;28;20177;-66
2023/07/05 01:35:16;;;;;;;1.92;1.13;;;20.50;99.90;;;;;;5019398;28;20264;-64
2023/07/05 01:37:44;;;;;;;1.60;1.40;;;20.50;99.90;;;;;;5016975;28;20185;-66
2023/07/05 01:40:21;;;;;;;1.25;1.05;;;20.50;99.90;;;;;;5018192;28;20239;-66
2023/07/05 01:42:55;;;;;;;1.98;1.33;;;20.50;99.90;;;;;;5035788;28;20181;-67
2023/07/05 01:45:30;;;;;;;1.95;1.48;;;20.50;99.90;;;;;;5019550;28;20208;-65
2023/07/05 01:48:06;;;;;;;1.10;1.00;;;20.50;99.90;;;;;;5019187;28;20197;-66
2023/07/05 01:50:39;;;;;;;1.52;1.20;;;20.50;99.90;;;;;;5018629;28;20213;-67
2023/07/05 01:53:17;;;;;;;1.20;1.05;;;20.50;99.90;;;;;;5016035;28;20217;-66
2023/07/05 01:55:56;;;;;;;1.30;1.20;;;20.60;99.90;;;;;;5022198;28;20178;-65
2023/07/05 01:58:28;;;;;;;1.30;1.10;;;20.60;99.90;;;;;;5032462;28;20283;-68
2023/07/05 02:00:57;;;;;;;1.35;1.15;;;20.50;99.90;;;;;;5013932;28;20186;-68
2023/07/05 02:03:26;;;;;;;1.48;1.10;;;20.60;99.90;;;;;;5017039;28;20178;-67
2023/07/05 02:05:59;;;;;;;2.03;1.23;;;20.60;99.90;;;;;;5019365;28;20385;-68
2023/07/05 02:08:28;;;;;;;1.83;1.35;;;20.50;99.90;;;;;;5018443;28;20201;-68
2023/07/05 02:10:54;;;;;;;1.70;1.40;;;20.50;99.90;;;;;;5018778;28;20271;-68
2023/07/05 02:13:20;;;;;;;1.38;1.05;;;20.50;99.90;;;;;;5017995;28;20251;-66
2023/07/05 02:15:48;;;;;;;2.10;1.20;;;20.50;99.90;;;;;;5019171;28;20244;-67
2023/07/05 02:18:15;;;;;;;1.40;1.17;;;20.50;99.90;;;;;;5017923;28;20181;-67
2023/07/05 02:20:41;;;;;;;1.70;1.33;;;20.50;99.90;;;;;;5019158;28;20547;-67
2023/07/05 02:23:07;;;;;;;1.35;1.23;;;20.40;99.90;;;;;;5035541;28;20308;-67
2023/07/05 02:25:36;;;;;;;1.63;1.25;;;20.40;99.90;;;;;;5019152;28;20260;-67
2023/07/05 02:28:09;;;;;;;3.08;1.70;;;20.40;99.90;;;;;;5017605;28;20225;-68
2023/07/05 02:30:39;;;;;;;1.75;1.50;;;20.30;99.90;;;;;;5018685;28;20181;-68
2023/07/05 02:33:07;;;;;;;1.88;1.30;;;20.30;99.90;;;;;;5016894;28;20186;-68
2023/07/05 02:35:38;;;;;;;1.67;1.30;;;20.30;99.90;;;;;;5017736;28;20261;-67
2023/07/05 02:38:05;;;;;;;3.28;1.50;;;20.20;99.90;;;;;;5018124;28;20178;-67
2023/07/05 02:40:33;;;;;;;1.55;1.25;;;20.10;99.90;;;;;;5018541;28;20208;-67
2023/07/05 02:43:01;;;;;;;1.85;1.23;;;19.90;99.90;;;;;;5017455;28;20182;-63
2023/07/05 02:45:31;;;;;;;2.85;1.58;;;19.80;99.90;;;;;;5010364;28;20244;-66
2023/07/05 02:47:59;;;;;;;2.53;1.30;;;19.70;99.90;;;;;;5031333;28;20205;-67
2023/07/05 02:50:27;;;;;;;1.40;1.13;;;19.60;99.90;;;;;;4980667;28;1112428;-68
2023/07/05 02:52:52;;;;;;;1.80;1.30;;;19.50;99.90;;;;;;5019927;28;20186;-68
2023/07/05 02:55:18;;;;;;;2.67;1.50;;;19.40;99.90;;;;;;5019700;28;20208;-65
2023/07/05 02:57:44;;;;;;;1.90;1.30;;;19.40;99.90;;;;;;5019376;28;20178;-63
2023/07/05 03:00:15;;;;;;;1.73;1.42;;;19.30;99.90;;;;;;5018504;28;20189;-67
2023/07/05 03:02:40;;;;;;;2.55;1.30;;;19.20;99.90;;;;;;5033992;28;20253;-66
2023/07/05 03:05:13;;;;;;;1.63;1.30;;;19.20;99.90;;;;;;5025145;28;20179;-67
2023/07/05 03:07:40;;;;;;;1.67;1.42;;;19.10;99.90;;;;;;5018219;28;20189;-67
2023/07/05 03:10:07;;;;;;;2.10;1.40;;;19.10;99.90;;;;;;5015790;28;20197;-67
2023/07/05 03:12:35;;;;;;;2.95;1.40;;;19.00;99.90;;;;;;5015528;28;20185;-66
2023/07/05 03:15:00;;;;;;;1.67;1.30;;;18.90;99.90;;;;;;5019064;28;20285;-65
2023/07/05 03:17:26;;;;;;;2.42;1.40;;;18.90;99.90;;;;;;5016516;28;20206;-64
2023/07/05 03:19:56;;;;;;;1.42;1.10;;;18.90;99.90;;;;;;5018420;28;20189;-64
2023/07/05 03:22:21;;;;;;;2.22;1.38;;;18.80;99.90;;;;;;5019075;28;20221;-65
2023/07/05 03:24:52;;;;;;;2.50;1.13;;;18.70;99.90;;;;;;5018463;28;20251;-64
2023/07/05 03:27:21;;;;;;;2.30;1.50;;;18.70;99.90;;;;;;5002033;28;20289;-67
2023/07/05 03:29:47;;;;;;;2.05;1.40;;;18.60;99.90;;;;;;5012094;28;20338;-68
2023/07/05 03:32:16;;;;;;;1.67;1.10;;;18.60;99.90;;;;;;5015190;28;20280;-67
2023/07/05 03:34:42;;;;;;;3.13;1.42;;;18.50;99.90;;;;;;5005406;28;20377;-67
2023/07/05 03:37:09;;;;;;;1.80;1.30;;;18.50;99.90;;;;;;5014853;28;20281;-65
2023/07/05 03:39:35;;;;;;;2.05;1.40;;;18.40;99.90;;;;;;5012792;28;21961;-66
2023/07/05 03:42:02;;;;;;;1.30;1.20;;;18.40;99.90;;;;;;5016808;28;20186;-67
2023/07/05 03:44:32;;;;;;;1.83;1.20;;;18.30;99.90;;;;;;5017509;28;20178;-67
2023/07/05 03:46:58;;;;;;;2.20;1.30;;;18.30;99.90;;;;;;5017156;28;20198;-66
2023/07/05 03:49:28;;;;;;;2.03;1.40;;;18.20;99.90;;;;;;5015926;28;20246;-64
2023/07/05 03:51:56;;;;;;;2.35;1.50;;;18.20;99.90;;;;;;5026946;28;20265;-68
2023/07/05 03:54:24;;;;;;;1.75;1.38;;;18.20;99.90;;;;;;5015008;28;20175;-64
2023/07/05 03:56:50;;;;;;;4.15;1.63;;;18.10;99.90;;;;;;5031943;28;20187;-67
2023/07/05 03:59:17;;;;;;;2.05;1.40;;;18.10;99.90;;;;;;5013387;28;20205;-67
2023/07/05 04:01:45;;;;;;;4.15;1.65;;;18.00;99.90;;;;;;5017894;28;20288;-67
2023/07/05 04:04:13;;;;;;;2.05;1.50;;;18.00;99.90;;;;;;5017774;28;20192;-67
2023/07/05 04:06:41;;;;;;;2.20;1.55;;;18.00;99.90;;;;;;5017767;28;20236;-68
2023/07/05 04:09:06;;;;;;;2.70;1.50;;;17.90;99.90;;;;;;5018440;28;20166;-67
2023/07/05 04:11:32;;;;;;;3.60;1.58;;;17.80;99.90;;;;;;5018690;28;20297;-66
2023/07/05 04:14:00;;;;;;;1.38;1.13;;;17.80;99.90;;;;;;5017931;28;20263;-66
2023/07/05 04:16:28;;;;;;;2.00;1.40;;;17.70;99.90;;;;;;5015837;28;20178;-66
2023/07/05 04:18:55;;;;;;;3.03;1.42;;;17.70;99.90;;;;;;5030067;28;20235;-67
2023/07/05 04:21:22;;;;;;;1.48;1.27;;;17.70;99.90;;;;;;5016075;28;20210;-65
2023/07/05 04:23:48;;;;;;;3.42;1.52;;;17.60;99.90;;;;;;5017767;28;20174;-66
2023/07/05 04:26:20;;;;;;;2.65;1.48;;;17.60;99.90;;;;;;5017522;28;20174;-67
2023/07/05 04:28:46;;;;;;;2.22;1.70;;;17.60;99.90;;;;;;5016992;28;20236;-66
2023/07/05 04:31:23;;;;;;;2.67;1.70;;;17.50;99.90;;;;;;5015809;28;20174;-66
2023/07/05 04:33:51;;;;;;;1.98;1.50;;;17.50;99.90;;;;;;5015271;28;20459;-67
2023/07/05 04:36:17;;;;;;;2.35;1.70;;;17.50;99.90;;;;;;5017170;28;20236;-66
2023/07/05 04:38:43;;;;;;;3.65;1.70;;;17.40;99.90;;;;;;5015299;28;20186;-66
2023/07/05 04:41:09;;;;;;;2.60;1.80;;;17.40;99.90;;;;;;5030549;28;20218;-66
2023/07/05 04:43:37;;;;;;;2.15;1.60;;;17.40;99.90;;;;;;5017279;28;20186;-66
2023/07/05 04:46:02;;;;;;;2.90;2.00;;;17.30;99.90;;;;;;5016828;28;20185;-66
2023/07/05 04:48:29;;;;;;;1.58;1.23;;;17.30;99.90;;;;;;5017934;28;20221;-66
2023/07/05 04:50:59;;;;;;;1.98;1.55;;;17.30;99.90;;;;;;5029457;28;20197;-66
2023/07/05 04:53:27;;;;;;;3.22;1.67;;;17.20;99.90;;;;;;5015125;28;20170;-66
2023/07/05 04:55:56;;;;;;;4.78;2.22;;;17.20;99.90;;;;;;5014189;28;20182;-66
2023/07/05 04:58:22;;;;;;;3.03;2.03;;;17.20;99.90;;;;;;5016451;28;20178;-66
2023/07/05 05:00:51;;;;;;;2.60;1.80;;;17.20;99.90;;;;;;5025370;28;20514;-66
2023/07/05 05:03:24;;;;;;;2.72;1.80;;;17.20;99.90;;;;;;5007153;28;20239;-66
2023/07/05 05:05:52;;;;;;;2.45;1.83;;;17.20;99.90;;;;;;5006269;28;20170;-67
2023/07/05 05:08:19;;;;;;;2.75;2.00;;;17.20;99.90;;;;;;5017487;28;20209;-67
2023/07/05 05:10:49;;;;;;;5.18;2.00;;;17.20;99.90;;;;;;5033998;28;20178;-66
2023/07/05 05:13:14;;;;;;;2.50;2.10;;;17.20;99.90;;;;;;5017361;28;20227;-66
2023/07/05 05:15:40;;;;;;;2.75;1.92;;;17.20;99.90;;;;;;5010759;28;20220;-69
2023/07/05 05:18:09;;;;;;;3.08;2.00;;;17.20;99.90;;;;;;5006219;28;20178;-67
2023/07/05 05:20:38;;;;;;;3.35;2.20;;;17.20;99.90;;;;;;5032485;28;20211;-68
2023/07/05 05:23:09;;;;;;;3.83;2.42;;;17.20;99.90;;;;;;5034148;28;20178;-67
2023/07/05 05:25:34;;;;;;;4.18;2.30;;;17.20;99.90;;;;;;5018034;28;20166;-68
2023/07/05 05:28:01;;;;;;;2.75;2.20;;;17.20;99.90;;;;;;5016959;28;20304;-67
2023/07/05 05:30:26;;;;;;;4.10;2.40;;;17.30;99.90;;;;;;5017677;28;20223;-67
2023/07/05 05:32:52;;;;;;;3.83;2.50;;;17.30;99.90;;;;;;5017237;28;20174;-67
2023/07/05 05:35:18;;;;;;;2.95;2.22;;;17.30;99.90;;;;;;5020962;28;20178;-67
2023/07/05 05:37:45;;;;;;;2.65;2.10;;;17.30;99.90;;;;;;5008332;28;20178;-66
2023/07/05 05:40:11;;;;;;;3.25;2.17;;;17.30;99.90;;;;;;5016073;28;20198;-67
2023/07/05 05:42:37;;;;;;;3.58;2.53;;;17.30;99.90;;;;;;5016216;28;20186;-65
2023/07/05 05:45:08;;;;;;;3.67;2.72;;;17.40;99.90;;;;;;5006649;28;20174;-65
2023/07/05 05:47:34;;;;;;;3.70;2.85;;;17.40;99.90;;;;;;5010172;28;20198;-65
2023/07/05 05:50:00;;;;;;;3.78;2.80;;;17.40;99.90;;;;;;5015683;28;20281;-65
2023/07/05 05:52:25;;;;;;;4.75;2.53;;;17.50;99.90;;;;;;5016516;28;20205;-65
2023/07/05 05:54:51;;;;;;;3.28;2.40;;;17.50;99.90;;;;;;5016951;28;20243;-65
2023/07/05 05:57:17;;;;;;;2.47;2.10;;;17.50;99.90;;;;;;5017105;28;20194;-66
2023/07/05 05:59:44;;;;;;;3.33;2.22;;;17.60;99.90;;;;;;5015982;28;20202;-65
2023/07/05 06:02:10;;;;;;;3.17;2.30;;;17.60;99.90;;;;;;5017051;28;20182;-66
2023/07/05 06:04:36;;;;;;;3.63;2.60;;;17.60;99.90;;;;;;5017280;28;20184;-66
2023/07/05 06:07:04;;;;;;;3.90;2.53;;;17.50;99.90;;;;;;5016770;28;20212;-66
2023/07/05 06:09:37;;;;;;;2.97;2.10;;;17.50;99.90;;;;;;5016163;28;20174;-66
2023/07/05 06:12:03;;;;;;;3.13;2.33;;;17.50;99.90;;;;;;5012978;28;20194;-66
2023/07/05 06:14:29;;;;;;;3.50;2.58;;;17.50;99.90;;;;;;5018997;28;20198;-66
2023/07/05 06:16:54;;;;;;;4.25;2.70;;;17.50;99.90;;;;;;5019003;28;20184;-66
2023/07/05 06:19:22;;;;;;;3.10;2.10;;;17.40;99.90;;;;;;5018127;28;20213;-66
2023/07/05 06:21:48;;;;;;;4.28;2.58;;;17.50;99.90;;;;;;5035781;28;20194;-66
2023/07/05 06:24:16;;;;;;;3.17;2.30;;;17.40;99.90;;;;;;5030969;28;20193;-67
2023/07/05 06:26:41;;;;;;;5.15;2.45;;;17.50;99.90;;;;;;5012999;28;20214;-66
2023/07/05 06:29:09;;;;;;;3.53;2.30;;;17.50;99.90;;;;;;5033651;28;20267;-67
2023/07/05 06:31:35;;;;;;;4.28;2.30;;;17.50;99.90;;;;;;5018562;28;20212;-66
2023/07/05 06:34:00;;;;;;;2.72;2.30;;;17.50;99.90;;;;;;5018953;28;20170;-67
2023/07/05 06:36:28;;;;;;;3.17;1.90;;;17.60;99.90;;;;;;5018503;28;20181;-66
2023/07/05 06:38:56;;;;;;;2.78;2.13;;;17.70;99.90;;;;;;5017389;28;20197;-67
2023/07/05 06:41:22;;;;;;;3.30;2.17;;;17.70;99.90;;;;;;5017684;28;20278;-67
2023/07/05 06:43:47;;;;;;;3.28;1.80;;;17.80;99.90;;;;;;5015854;28;20264;-67
2023/07/05 06:46:13;;;;;;;3.35;2.20;;;17.80;99.90;;;;;;5019443;28;20174;-67
2023/07/05 06:48:38;;;;;;;2.95;1.70;;;17.90;99.90;;;;;;5057725;23;20241;-64
2023/07/05 06:51:07;;;;;;;1.83;1.50;;;17.90;99.90;;;;;;4995692;28;20199;-65
2023/07/05 06:53:32;;;;;;;2.63;1.80;;;18.00;99.90;;;;;;4987889;28;20204;-65
2023/07/05 06:55:58;;;;;;;2.53;1.95;;;18.00;99.90;;;;;;4996029;28;20186;-64
2023/07/05 06:58:23;;;;;;;2.67;1.80;;;18.00;99.90;;;;;;5006470;28;20199;-66
2023/07/05 07:00:52;;;;;;;3.40;1.75;;;18.00;99.90;;;;;;5012959;28;20254;-65
2023/07/05 07:03:20;;;;;;;3.08;1.80;;;18.00;99.90;;;;;;4996965;28;20175;-65
2023/07/05 07:05:56;;;;;;;1.77;1.48;;;18.00;99.90;;;;;;4996629;28;20222;-65
2023/07/05 07:08:29;;;;;;;3.47;2.20;;;18.00;99.90;;;;;;4996920;28;20195;-66
2023/07/05 07:10:55;;;;;;;2.72;1.63;;;18.10;99.90;;;;;;4996802;28;20443;-65
2023/07/05 07:13:21;;;;;;;2.10;1.45;;;18.10;99.90;;;;;;4995792;28;20249;-65
2023/07/05 07:15:49;;;;;;;2.58;1.35;;;18.10;99.90;;;;;;4992950;28;20195;-65
2023/07/05 07:18:14;;;;;;;2.08;1.48;;;18.10;99.90;;;;;;4980811;28;20266;-65
2023/07/05 07:20:40;;;;;;;2.67;1.50;;;18.10;99.90;;;;;;4994982;28;20332;-65
2023/07/05 07:23:07;;;;;;;3.30;1.50;;;18.10;99.90;;;;;;4980382;28;20203;-65
2023/07/05 07:25:33;;;;;;;1.70;1.27;;;18.10;99.90;;;;;;4987792;28;20175;-65
2023/07/05 07:27:59;;;;;;;2.28;1.45;;;18.10;99.90;;;;;;4997937;28;20249;-67
2023/07/05 07:30:25;;;;;;;1.88;1.38;;;18.10;99.90;;;;;;4996786;28;20199;-67
2023/07/05 07:32:51;;;;;;;1.67;1.30;;;18.20;99.90;;;;;;4987562;28;20451;-66
2023/07/05 07:35:19;;;;;;;1.88;1.27;;;18.20;99.90;;;;;;4993712;28;20225;-67
2023/07/05 07:37:45;;;;;;;1.88;1.15;;;18.20;99.90;;;;;;4991895;28;20183;-67
2023/07/05 07:40:11;;;;;;;1.98;1.30;;;18.20;99.90;;;;;;4996790;28;20183;-68
2023/07/05 07:42:37;;;;;;;1.50;1.20;;;18.20;99.90;;;;;;4994436;28;20190;-64
2023/07/05 07:45:05;;;;;;;2.65;1.35;;;18.20;99.90;;;;;;4990374;28;20226;-66
2023/07/05 07:47:31;;;;;;;2.53;1.30;;;18.20;99.90;;;;;;4994812;28;20202;-66
2023/07/05 07:49:58;;;;;;;1.88;1.20;;;18.20;99.90;;;;;;5009915;28;20216;-65
2023/07/05 07:52:26;;;;;;;1.83;1.23;;;18.20;99.90;;;;;;4995285;28;20191;-67
2023/07/05 07:54:56;;;;;;;3.30;1.30;;;18.20;99.90;;;;;;4990799;28;20172;-66
2023/07/05 07:57:24;;;;;;;2.33;1.20;;;18.30;99.90;;;;;;5006876;28;20179;-66
2023/07/05 07:59:51;;;;;;;2.00;1.30;;;18.30;99.90;;;;;;4989485;28;20183;-65
2023/07/05 08:02:17;;;;;;;2.05;1.10;;;18.30;99.90;;;;;;4996240;28;20203;-66
2023/07/05 08:04:44;;;;;;;1.35;1.10;;;18.30;99.90;;;;;;4999516;28;20268;-67
2023/07/05 08:07:10;;;;;;;1.77;1.10;;;18.30;99.90;;;;;;4990067;28;20257;-66
2023/07/05 08:09:38;;;;;;;1.85;1.10;;;18.30;99.90;;;;;;4988516;28;20176;-64
2023/07/05 08:12:06;;;;;;;2.47;1.20;;;18.30;99.90;;;;;;4983120;28;20176;-66
2023/07/05 08:14:32;;;;;;;3.72;1.05;;;18.40;99.90;;;;;;4976757;28;20196;-67
2023/07/05 08:16:57;;;;;;;2.67;1.23;;;18.40;99.90;;;;;;4989094;28;20180;-68
2023/07/05 08:19:23;;;;;;;2.25;1.10;;;18.50;99.90;;;;;;4988456;28;20194;-67
2023/07/05 08:21:51;;;;;;;4.15;1.17;;;18.50;99.90;;;;;;4995929;28;20183;-66
2023/07/05 08:24:17;;;;;;;1.83;1.00;;;18.60;99.90;;;;;;4990546;28;20183;-66
2023/07/05 08:26:43;;;;;;;1.30;0.80;;;18.60;99.90;;;;;;5005584;28;20212;-66
2023/07/05 08:29:10;;;;;;;1.95;0.90;;;18.60;99.90;;;;;;5009015;28;20216;-66
2023/07/05 08:31:36;;;;;;;2.38;0.80;;;18.60;99.90;;;;;;4990783;28;20188;-67
2023/07/05 08:34:06;;;;;;;1.70;1.05;;;18.70;99.90;;;;;;4994958;28;20206;-67
2023/07/05 08:36:35;;;;;;;1.23;0.80;;;18.70;99.90;;;;;;4998491;28;20194;-67
2023/07/05 08:39:03;;;;;;;1.67;0.82;;;18.70;99.90;;;;;;4991936;28;20179;-66
2023/07/05 08:41:41;;;;;;;1.13;0.80;;;18.70;99.90;;;;;;4989189;28;20364;-67
2023/07/05 08:44:25;;;;;;;3.35;1.00;;;18.80;99.90;;;;;;4993385;28;20237;-67
2023/07/05 08:47:01;;;;;;;2.45;0.90;;;18.80;99.90;;;;;;4994304;28;20210;-67
2023/07/05 08:49:35;;;;;;;2.15;0.90;;;18.80;99.90;;;;;;4994609;28;20325;-67
2023/07/05 08:52:04;;;;;;;2.13;0.82;;;18.90;99.90;;;;;;4999662;28;20183;-67
2023/07/05 08:54:32;;;;;;;2.58;1.17;;;18.90;99.90;;;;;;4996298;28;20198;-67
2023/07/05 08:57:10;;;;;;;1.98;1.10;;;19.00;99.90;;;;;;4995685;28;20286;-66
2023/07/05 08:59:46;;;;;;;2.30;0.98;;;19.10;99.90;;;;;;4991338;28;20252;-69
2023/07/05 09:02:19;;;;;;;2.13;1.10;;;19.20;99.90;;;;;;5022855;28;20194;-68
2023/07/05 09:04:49;;;;;;;2.72;1.00;;;19.30;99.90;;;;;;5001168;28;20178;-67
2023/07/05 09:07:45;;;;;;;2.20;1.10;;;19.40;99.90;;;;;;4993598;28;20203;-67
2023/07/05 09:10:37;;;;;;;2.38;1.05;;;19.40;99.90;;;;;;4992338;28;20190;-67
2023/07/05 09:13:14;;;;;;;2.13;0.95;;;19.50;99.90;;;;;;4992035;28;20173;-67
2023/07/05 09:16:00;;;;;;;1.55;0.88;;;19.50;99.90;;;;;;4992273;28;20271;-66
2023/07/05 09:18:46;;;;;;;1.40;0.80;;;19.50;99.90;;;;;;4992005;28;20191;-67
2023/07/05 09:21:29;;;;;;;2.90;1.00;;;19.60;99.90;;;;;;4991668;28;20207;-66
2023/07/05 09:24:20;;;;;;;1.65;0.80;;;19.50;99.90;;;;;;4991700;28;20178;-66
2023/07/05 09:26:58;;;;;;;2.13;0.90;;;19.60;99.90;;;;;;4990166;28;20195;-67
2023/07/05 09:29:38;;;;;;;2.05;1.08;;;19.60;99.90;;;;;;4994828;28;20202;-66
2023/07/05 09:32:12;;;;;;;3.38;1.10;;;19.60;99.90;;;;;;4993571;28;20509;-66
2023/07/05 09:34:45;;;;;;;1.88;0.90;;;19.70;99.90;;;;;;4994618;28;20177;-67
2023/07/05 09:37:25;;;;;;;3.72;1.10;;;19.70;99.90;;;;;;4989705;28;20167;-67
2023/07/05 09:40:09;;;;;;;4.07;1.05;;;19.70;99.90;;;;;;4988626;28;20202;-66
2023/07/05 09:42:55;;;;;;;4.43;1.30;;;19.70;99.90;;;;;;5008874;28;20183;-66
2023/07/05 09:45:26;;;;;;;2.35;1.05;;;19.70;99.90;;;;;;5001749;28;20256;-67
2023/07/05 09:47:59;;;;;;;2.72;1.02;;;19.80;99.90;;;;;;4994025;28;20237;-66
2023/07/05 09:50:29;;;;;;;2.53;1.20;;;19.80;99.90;;;;;;4999282;28;20242;-67
2023/07/05 09:53:02;;;;;;;2.20;0.98;;;19.90;99.80;;;;;;4998130;28;20172;-65
2023/07/05 09:55:28;;;;;;;2.08;1.00;;;20.00;99.70;;;;;;5014556;28;20183;-66
2023/07/05 09:57:56;;;;;;;3.05;1.00;;;20.10;99.90;;;;;;4989521;28;20207;-66
2023/07/05 10:00:31;;;;;;;4.55;1.25;;;20.10;99.90;;;;;;4998255;28;20190;-66
2023/07/05 10:03:10;;;;;;;3.28;1.20;;;20.20;99.70;;;;;;4979228;28;20258;-66
2023/07/05 10:05:37;;;;;;;2.85;1.10;;;20.30;99.10;;;;;;4978621;28;20200;-66
2023/07/05 10:08:17;;;;;;;1.80;1.10;;;20.30;99.20;;;;;;4978866;28;20211;-67
2023/07/05 10:10:46;;;;;;;2.80;1.30;;;20.40;99.30;;;;;;4985648;28;20166;-67
2023/07/05 10:13:20;;;;;;;2.67;1.15;;;20.40;98.90;;;;;;5010189;28;20263;-67
2023/07/05 10:15:49;;;;;;;4.50;1.35;;;20.50;98.70;;;;;;4982612;28;20180;-67
2023/07/05 10:18:30;;;;;;;1.95;1.25;;;20.50;98.30;;;;;;4985940;28;20187;-66
2023/07/05 10:21:04;;;;;;;2.03;1.00;;;20.60;98.10;;;;;;4996581;28;20299;-65
2023/07/05 10:23:32;;;;;;;3.97;1.35;;;20.60;97.40;;;;;;5012781;28;20174;-66
2023/07/05 10:26:03;;;;;;;2.72;1.27;;;20.60;96.70;;;;;;4998168;28;20194;-66
2023/07/05 10:28:30;;;;;;;1.48;0.90;;;20.70;96.50;;;;;;4992877;28;20270;-65
2023/07/05 10:30:59;;;;;;;3.80;1.48;;;20.70;96.60;;;;;;4978313;28;20172;-66
2023/07/05 10:33:31;;;;;;;2.65;1.30;;;20.80;96.30;;;;;;4997071;28;20186;-65
2023/07/05 10:36:14;;;;;;;2.47;1.20;;;20.80;96.30;;;;;;4986113;28;20204;-66
2023/07/05 10:38:47;;;;;;;1.98;1.10;;;20.90;95.30;;;;;;5005232;28;20188;-66
2023/07/05 10:41:26;;;;;;;3.72;1.20;;;20.90;95.60;;;;;;4981696;28;20179;-66
2023/07/05 10:44:24;;;;;;;3.95;1.35;;;21.10;95.30;;;;;;4997262;28;20175;-66
2023/07/05 10:46:52;;;;;;;3.10;1.20;;;21.20;94.50;;;;;;4992829;28;20219;-66
2023/07/05 10:49:19;;;;;;;3.55;1.30;;;21.20;94.40;;;;;;4994083;28;20249;-66
2023/07/05 10:51:59;;;;;;;3.10;1.30;;;21.30;94.00;;;;;;5012787;28;20175;-66
2023/07/05 10:54:45;;;;;;;2.35;1.20;;;21.30;93.90;;;;;;4977812;28;20246;-66
2023/07/05 10:57:43;;;;;;;3.13;1.10;;;21.40;94.10;;;;;;4998806;28;20206;-66
2023/07/05 11:00:37;;;;;;;3.58;1.10;;;21.60;93.20;;;;;;4974808;28;20191;-65
2023/07/05 11:03:21;;;;;;;2.47;1.30;;;21.60;92.50;;;;;;4996675;28;20180;-66
2023/07/05 11:05:51;;;;;;;2.17;1.10;;;21.70;91.20;;;;;;4996557;28;20211;-66
2023/07/05 11:08:28;;;;;;;3.28;1.10;;;21.80;92.30;;;;;;4997122;28;20327;-66
2023/07/05 11:11:15;;;;;;;2.47;1.13;;;21.80;91.60;;;;;;4997335;28;20509;-66
2023/07/05 11:13:44;;;;;;;2.20;1.00;;;21.90;91.10;;;;;;4996886;28;20167;-66
2023/07/05 11:16:25;;;;;;;2.65;1.20;;;21.90;90.90;;;;;;4996456;28;20167;-66
2023/07/05 11:19:00;;;;;;;3.88;1.08;;;21.90;90.80;;;;;;4994186;28;20239;-66
2023/07/05 11:21:39;;;;;;;2.72;1.30;;;21.90;90.30;;;;;;4996814;28;20413;-66
2023/07/05 11:24:09;;;;;;;4.10;1.65;;;22.00;88.50;;;;;;4996220;28;20179;-66
2023/07/05 11:26:43;;;;;;;2.88;1.30;;;22.00;89.30;;;;;;4996163;28;20207;-65
2023/07/05 11:29:24;;;;;;;3.05;1.40;;;22.00;88.70;;;;;;4977248;28;20380;-66
2023/07/05 11:31:53;;;;;;;3.25;1.30;;;22.10;89.20;;;;;;4995555;28;20172;-66
2023/07/05 11:34:22;;;;;;;3.97;1.23;;;22.20;88.10;;;;;;5015730;28;20199;-66
2023/07/05 11:36:52;;;;;;;2.85;1.38;;;22.20;86.00;;;;;;5008457;28;20191;-66
2023/07/05 11:39:49;;;;;;;2.30;1.20;;;22.20;85.60;;;;;;5002238;28;20184;-66
2023/07/05 11:42:15;;;;;;;2.03;1.20;;;22.20;84.80;;;;;;4980594;28;20195;-65
2023/07/05 11:44:41;;;;;;;2.63;1.30;;;22.20;84.20;;;;;;4996721;28;20183;-66
2023/07/05 11:47:11;;;;;;;3.45;1.15;;;22.20;83.20;;;;;;5001306;28;20211;-66
2023/07/05 11:49:46;;;;;;;3.72;1.10;;;22.10;83.20;;;;;;4984471;28;20227;-66
2023/07/05 11:52:14;;;;;;;4.82;1.20;;;22.00;82.00;;;;;;5010264;28;20183;-65
2023/07/05 11:54:48;;;;;;;3.55;1.40;;;21.90;82.80;;;;;;4992930;28;20177;-66
2023/07/05 11:57:14;;;;;;;5.75;1.52;;;21.80;82.00;;;;;;5008712;28;20179;-65
2023/07/05 11:59:47;;;;;;;2.92;1.40;;;21.80;83.60;;;;;;4984299;28;20176;-66
2023/07/05 12:02:43;;;;;;;2.60;1.23;;;21.80;84.40;;;;;;4996012;28;20194;-66
2023/07/05 12:05:13;;;;;;;2.47;1.50;;;21.80;85.30;;;;;;4995436;28;20211;-66
2023/07/05 12:07:44;;;;;;;3.22;1.67;;;22.00;86.80;;;;;;4994667;28;20206;-66
2023/07/05 12:10:18;;;;;;;2.28;1.33;;;22.10;87.10;;;;;;4994860;28;20175;-66
2023/07/05 12:12:44;;;;;;;3.22;1.50;;;22.20;87.30;;;;;;4991123;28;20464;-66
2023/07/05 12:15:11;;;;;;;4.80;1.63;;;22.40;87.40;;;;;;4987731;28;20263;-66
2023/07/05 12:17:40;;;;;;;3.00;1.55;;;22.50;85.60;;;;;;4994191;28;20477;-65
2023/07/05 12:20:29;;;;;;;3.67;1.60;;;22.50;85.30;;;;;;4980939;28;20195;-65
2023/07/05 12:22:56;;;;;;;3.17;1.80;;;22.30;85.30;;;;;;4994204;28;20210;-63
2023/07/05 12:25:24;;;;;;;2.22;1.60;;;22.30;85.40;;;;;;4994655;28;20281;-64
2023/07/05 12:27:51;;;;;;;3.13;1.42;;;22.20;85.70;;;;;;4992161;28;20196;-63
2023/07/05 12:30:20;;;;;;;4.28;1.63;;;22.00;85.90;;;;;;4986629;28;20438;-63
2023/07/05 12:32:53;;;;;;;4.13;1.55;;;21.90;86.40;;;;;;4984646;28;20199;-63
2023/07/05 12:35:24;;;;;;;3.13;1.50;;;21.80;86.30;;;;;;4994024;28;20262;-63
2023/07/05 12:37:52;;;;;;;2.60;1.50;;;21.70;86.50;;;;;;4991726;28;20176;-63
2023/07/05 12:40:21;;;;;;;2.42;1.30;;;21.60;87.00;;;;;;4992900;28;20207;-63
2023/07/05 12:43:04;;;;;;;5.30;1.73;;;21.60;87.50;;;;;;5010546;28;20175;-64
2023/07/05 12:45:36;;;;;;;6.57;1.60;;;21.50;87.70;;;;;;4994753;28;20171;-63
2023/07/05 12:50:32;;;;;;;3.20;1.50;;;21.40;87.90;;;;;;5013528;28;20214;-64
2023/07/05 12:53:06;;;;;;;4.82;1.80;;;21.40;88.00;;;;;;5006102;28;20234;-64
2023/07/05 12:55:36;;;;;;;3.63;1.50;;;21.30;88.40;;;;;;5014526;28;20205;-64
2023/07/05 12:58:04;;;;;;;3.33;1.50;;;21.30;89.00;;;;;;5013837;28;20182;-64
2023/07/05 13:00:30;;;;;;;2.88;1.40;;;21.20;89.50;;;;;;5010950;28;20179;-64
2023/07/05 13:03:00;;;;;;;3.05;1.40;;;21.20;90.00;;;;;;5003188;28;20202;-64
2023/07/05 13:05:27;;;;;;;2.85;1.40;;;21.30;90.20;;;;;;5014016;28;20213;-64
2023/07/05 13:07:53;;;;;;;2.50;1.30;;;21.30;90.60;;;;;;4999214;28;20203;-65